createdAt,value
2022-11-21T00:00:35.549Z,0.68
2022-11-21T00:05:43.821Z,0.82
2022-11-21T00:10:46.110Z,0.98
2022-11-21T00:15:48.212Z,0.70
2022-11-21T00:20:49.517Z,0.70
2022-11-21T00:25:50.813Z,0.98
2022-11-21T00:30:52.226Z,0.50
2022-11-21T00:35:53.558Z,1.00
2022-11-21T00:40:54.896Z,0.60
2022-11-21T00:45:56.230Z,0.30
2022-11-21T00:50:57.655Z,0.38
2022-11-21T00:55:59.031Z,0.35
2022-11-21T01:01:10.187Z,0.40
2022-11-21T01:06:14.276Z,0.47
2022-11-21T01:11:17.978Z,0.47
2022-11-21T01:16:21.645Z,0.32
2022-11-21T01:21:25.376Z,0.40
2022-11-21T01:26:29.612Z,0.55
2022-11-21T01:31:31.691Z,0.93
2022-11-21T01:36:34.219Z,0.60
2022-11-21T01:41:38.766Z,0.57
2022-11-21T01:46:40.120Z,1.00
2022-11-21T01:51:51.688Z,0.95
2022-11-21T01:57:00.952Z,0.80
2022-11-21T02:02:05.223Z,1.17
2022-11-21T02:07:07.836Z,0.93
2022-11-21T02:12:16.396Z,1.67
2022-11-21T02:17:18.513Z,1.10
2022-11-21T02:22:26.007Z,2.30
2022-11-21T02:27:28.171Z,1.50
2022-11-21T02:32:35.952Z,1.65
2022-11-21T02:37:37.562Z,2.63
2022-11-21T02:43:00.298Z,3.58
2022-11-21T02:48:04.225Z,1.92
2022-11-21T02:53:08.404Z,2.40
2022-11-21T02:58:10.438Z,1.77
2022-11-21T03:03:12.066Z,2.40
2022-11-21T03:08:13.390Z,1.70
2022-11-21T03:13:14.688Z,2.28
2022-11-21T03:18:15.964Z,2.10
2022-11-21T03:23:17.366Z,1.70
2022-11-21T03:28:18.713Z,2.20
2022-11-21T03:33:20.032Z,2.20
2022-11-21T03:38:21.333Z,2.47
2022-11-21T03:43:22.737Z,2.55
2022-11-21T03:48:24.063Z,1.83
2022-11-21T03:53:25.414Z,2.40
2022-11-21T03:58:26.742Z,2.83
2022-11-21T04:03:28.052Z,1.95
2022-11-21T04:08:29.337Z,2.40
2022-11-21T04:13:30.657Z,1.90
2022-11-21T04:18:34.216Z,3.25
2022-11-21T04:23:35.844Z,1.88
2022-11-21T04:28:37.186Z,2.13
2022-11-21T04:33:39.530Z,2.13
2022-11-21T04:38:40.896Z,1.73
2022-11-21T04:43:42.265Z,2.30
2022-11-21T04:48:43.574Z,1.50
2022-11-21T04:53:44.944Z,1.55
2022-11-21T04:58:46.249Z,2.00
2022-11-21T05:03:47.556Z,1.70
2022-11-21T05:08:52.681Z,1.25
2022-11-21T05:13:55.433Z,1.30
2022-11-21T05:18:56.712Z,1.30
2022-11-21T05:23:58.102Z,1.35
2022-11-21T05:28:59.521Z,2.20
2022-11-21T05:34:00.899Z,0.95
2022-11-21T05:39:02.222Z,1.35
2022-11-21T05:44:03.700Z,2.45
2022-11-21T05:49:05.221Z,1.00
2022-11-21T05:54:06.738Z,1.30
2022-11-21T05:59:08.656Z,0.82
2022-11-21T06:04:10.590Z,0.95
2022-11-21T06:09:11.876Z,1.20
2022-11-21T06:14:13.162Z,0.93
2022-11-21T06:19:14.565Z,1.33
2022-11-21T06:24:20.766Z,1.35
2022-11-21T06:29:23.376Z,1.90
2022-11-21T06:34:27.034Z,1.25
2022-11-21T06:39:28.622Z,1.70
2022-11-21T06:44:30.284Z,1.42
2022-11-21T06:49:31.729Z,1.08
2022-11-21T06:54:33.645Z,1.80
2022-11-21T06:59:35.289Z,1.60
2022-11-21T07:04:36.649Z,1.45
2022-11-21T07:09:37.963Z,1.65
2022-11-21T07:14:39.302Z,1.30
2022-11-21T07:19:41.207Z,2.13
2022-11-21T07:24:42.791Z,1.80
2022-11-21T07:29:44.192Z,2.70
2022-11-21T07:34:45.541Z,1.33
2022-11-21T07:39:46.877Z,1.25
2022-11-21T07:44:48.153Z,1.95
2022-11-21T07:49:49.493Z,1.30
2022-11-21T07:54:51.016Z,1.52
2022-11-21T07:59:52.313Z,1.75
2022-11-21T08:04:54.033Z,1.50
2022-11-21T08:09:55.490Z,1.90
2022-11-21T08:14:56.828Z,1.63
2022-11-21T08:20:00.245Z,1.85
2022-11-21T08:25:01.583Z,1.77
2022-11-21T08:30:05.095Z,1.60
2022-11-21T08:35:06.956Z,1.85
2022-11-21T08:40:08.923Z,1.70
2022-11-21T08:45:10.442Z,1.77
2022-11-21T08:50:11.787Z,1.63
2022-11-21T08:55:13.128Z,1.42
2022-11-21T09:00:15.059Z,1.60
2022-11-21T09:05:16.509Z,1.77
2022-11-21T09:10:17.921Z,1.52
2022-11-21T09:15:37.832Z,1.30
2022-11-21T09:20:42.246Z,1.30
2022-11-21T09:25:44.406Z,1.65
2022-11-21T09:30:46.142Z,1.73
2022-11-21T09:35:48.035Z,1.48
2022-11-21T09:40:49.541Z,1.40
2022-11-21T09:45:55.080Z,1.25
2022-11-21T09:51:05.932Z,1.52
2022-11-21T09:56:15.584Z,1.40
2022-11-21T10:01:17.473Z,1.25
2022-11-21T10:06:25.954Z,1.15
2022-11-21T10:12:14.139Z,1.33
2022-11-21T10:17:33.762Z,1.30
2022-11-21T10:22:45.010Z,0.90
2022-11-21T10:27:55.514Z,0.90
2022-11-21T10:33:01.564Z,1.00
2022-11-21T10:38:14.591Z,1.08
2022-11-21T10:43:59.333Z,1.00
2022-11-21T10:49:03.013Z,1.00
2022-11-21T10:54:29.354Z,0.45
2022-11-21T10:59:31.502Z,0.88
2022-11-21T11:04:45.681Z,0.60
2022-11-21T11:09:48.979Z,1.90
2022-11-21T11:14:52.978Z,0.93
2022-11-21T11:20:06.352Z,1.45
2022-11-21T11:25:09.643Z,0.80
2022-11-21T11:30:15.665Z,1.83
2022-11-21T11:35:16.954Z,1.73
2022-11-21T11:40:21.235Z,1.83
2022-11-21T11:46:09.620Z,1.55
2022-11-21T11:51:41.754Z,1.17
2022-11-21T11:56:43.393Z,1.35
2022-11-21T12:02:16.584Z,1.90
2022-11-21T12:13:16.186Z,1.10
2022-11-21T12:18:20.425Z,0.88
2022-11-21T12:23:24.054Z,0.80
2022-11-21T12:28:43.468Z,1.05
2022-11-21T12:34:04.228Z,1.35
2022-11-21T12:39:32.404Z,0.75
2022-11-21T12:44:39.972Z,2.25
2022-11-21T12:50:06.177Z,1.17
2022-11-21T12:55:35.147Z,0.50
2022-11-21T13:01:03.340Z,0.93
2022-11-21T13:06:06.838Z,0.70
2022-11-21T13:12:00.995Z,0.93
2022-11-21T13:17:24.366Z,0.50
2022-11-21T13:22:37.707Z,0.60
2022-11-21T13:27:41.033Z,0.60
2022-11-21T13:32:45.107Z,0.88
2022-11-21T13:37:49.179Z,1.20
2022-11-21T13:43:32.155Z,0.93
2022-11-21T13:48:30.695Z,1.35
2022-11-21T13:53:41.606Z,1.20
2022-11-21T13:59:00.445Z,1.00
2022-11-21T14:04:07.732Z,1.25
2022-11-21T14:09:48.770Z,1.17
2022-11-21T14:15:13.129Z,2.03
2022-11-21T14:20:19.957Z,1.58
2022-11-21T14:25:33.740Z,1.65
2022-11-21T14:30:37.907Z,2.50
2022-11-21T14:35:39.753Z,2.67
2022-11-21T14:40:41.029Z,1.70
2022-11-21T14:45:49.073Z,1.23
2022-11-21T14:50:50.570Z,1.35
2022-11-21T14:55:54.673Z,1.80
2022-11-21T15:01:05.183Z,1.55
2022-11-21T15:06:10.710Z,1.60
2022-11-21T15:11:13.870Z,1.33
2022-11-21T15:16:15.585Z,1.50
2022-11-21T15:21:17.041Z,1.85
2022-11-21T15:26:32.165Z,1.83
2022-11-21T15:31:33.513Z,3.03
2022-11-21T15:36:34.901Z,3.10
2022-11-21T15:41:36.936Z,2.10
2022-11-21T15:46:42.064Z,1.77
2022-11-21T15:57:09.109Z,2.30
2022-11-21T16:02:13.409Z,3.70
2022-11-21T16:07:14.764Z,4.45
2022-11-21T16:12:16.056Z,2.92
2022-11-21T16:17:17.403Z,4.40
2022-11-21T16:22:18.809Z,4.70
2022-11-21T16:27:20.153Z,3.42
2022-11-21T16:32:21.543Z,4.22
2022-11-21T16:37:22.870Z,4.75
2022-11-21T16:42:24.163Z,3.58
2022-11-21T16:47:25.493Z,3.80
2022-11-21T16:52:26.855Z,4.72
2022-11-21T16:57:28.421Z,5.30
2022-11-21T17:02:30.060Z,5.43
2022-11-21T17:07:32.851Z,6.40
2022-11-21T17:12:41.194Z,5.55
2022-11-21T17:17:42.982Z,7.07
2022-11-21T17:22:44.329Z,5.63
2022-11-21T17:27:47.057Z,5.53
2022-11-21T17:32:48.537Z,5.07
2022-11-21T17:37:49.874Z,5.45
2022-11-21T17:42:51.169Z,4.85
2022-11-21T17:47:52.559Z,5.75
2022-11-21T17:52:54.063Z,5.03
2022-11-21T17:57:55.343Z,5.07
2022-11-21T18:02:56.807Z,4.90
2022-11-21T18:07:58.440Z,4.53
2022-11-21T18:13:00.009Z,5.15
2022-11-21T18:18:01.344Z,5.22
2022-11-21T18:23:03.120Z,5.45
2022-11-21T18:28:05.619Z,4.80
2022-11-21T18:33:06.945Z,5.20
2022-11-21T18:38:08.279Z,5.80
2022-11-21T18:43:09.670Z,5.75
2022-11-21T18:48:12.753Z,3.90
2022-11-21T18:53:14.127Z,4.10
2022-11-21T18:58:15.582Z,4.18
2022-11-21T19:03:19.466Z,3.15
2022-11-21T19:08:20.985Z,10.37
2022-11-21T19:13:22.409Z,5.32
2022-11-21T19:18:23.727Z,3.40
2022-11-21T19:23:25.269Z,4.20
2022-11-21T19:28:28.418Z,4.10
2022-11-21T19:33:31.679Z,3.25
2022-11-21T19:38:33.886Z,2.97
2022-11-21T19:43:35.269Z,3.00
2022-11-21T19:48:36.632Z,3.53
2022-11-21T19:53:38.821Z,3.53
2022-11-21T19:58:41.516Z,2.55
2022-11-21T20:03:45.276Z,3.28
2022-11-21T20:08:58.164Z,3.30
2022-11-21T20:13:59.920Z,3.58
2022-11-21T20:19:06.674Z,3.38
2022-11-21T20:24:08.842Z,2.80
2022-11-21T20:29:13.102Z,2.85
2022-11-21T20:34:14.658Z,3.30
2022-11-21T20:39:17.935Z,2.45
2022-11-21T20:49:42.649Z,3.58
2022-11-21T20:54:44.121Z,2.47
2022-11-21T20:59:45.496Z,3.40
2022-11-21T21:04:46.956Z,2.58
2022-11-21T21:09:48.257Z,3.35
2022-11-21T21:14:49.528Z,2.50
2022-11-21T21:19:50.882Z,2.78
2022-11-21T21:24:52.167Z,2.67
2022-11-21T21:29:53.531Z,3.05
2022-11-21T21:34:54.837Z,2.35
2022-11-21T21:39:56.219Z,2.33
2022-11-21T21:44:57.565Z,2.67
2022-11-21T21:49:58.865Z,2.75
2022-11-21T21:55:00.191Z,2.75
2022-11-21T22:00:01.521Z,2.53
2022-11-21T22:05:03.110Z,2.45
2022-11-21T22:10:06.152Z,3.60
2022-11-21T22:15:08.008Z,3.45
2022-11-21T22:20:09.677Z,2.70
2022-11-21T22:25:10.969Z,2.40
2022-11-21T22:30:14.290Z,2.65
2022-11-21T22:35:15.679Z,2.67
2022-11-21T22:40:18.418Z,2.42
2022-11-21T22:45:19.761Z,2.22
2022-11-21T22:50:21.108Z,1.85
2022-11-21T22:55:22.555Z,2.42
2022-11-21T23:00:23.997Z,1.92
2022-11-21T23:05:25.377Z,2.63
2022-11-21T23:10:26.661Z,2.17
2022-11-21T23:15:27.955Z,2.65
2022-11-21T23:20:29.259Z,2.92
2022-11-21T23:25:30.631Z,2.75
2022-11-21T23:30:32.007Z,1.73
2022-11-21T23:35:33.359Z,2.58
2022-11-21T23:40:34.745Z,2.13
2022-11-21T23:45:36.151Z,2.40
2022-11-21T23:50:37.489Z,2.03
2022-11-21T23:55:38.839Z,2.38
